Time;durP1;ratioP1;P1;durP2;ratioP2;P2;SDS_P1;SDS_P2;PMS_P1;PMS_P2;Temp;Humidity;BMP_temperature;BMP_pressure;BME280_temperature;BME280_humidity;BME280_pressure;Samples;Min_cycle;Max_cycle;Signal;HPM_P1;HPM_P2
2022/06/30 00:01:06;;;;;;;;;;;;;;;;;;5053902;28;1076;-77
2022/06/30 00:03:33;;;;;;;;;;;;;;;;;;5054183;28;1053;-77
2022/06/30 00:06:01;;;;;;;;;;;;;;;;;;5052378;28;1223;-77
2022/06/30 00:08:27;;;;;;;;;;;;;;;;;;5053059;28;1068;-78
2022/06/30 00:10:53;;;;;;;;;;;;;;;;;;5052088;28;1218;-77
2022/06/30 00:13:20;;;;;;;;;;;;;;;;;;5053543;28;933;-77
2022/06/30 00:15:46;;;;;;;;;;;;;;;;;;5035739;28;1318;-78
2022/06/30 00:18:12;;;;;;;;;;;;;;;;;;5052286;28;1975;-77
2022/06/30 00:20:38;;;;;;;;;;;;;;;;;;5053432;28;1076;-77
2022/06/30 00:23:06;;;;;;;;;;;;;;;;;;5053713;28;821;-78
2022/06/30 00:25:32;;;;;;;;;;;;;;;;;;5053300;28;1387;-77
2022/06/30 00:27:58;;;;;;;;;;;;;;;;;;5052471;28;1087;-77
2022/06/30 00:30:25;;;;;;;;;;;;;;;;;;5051890;28;1524;-78
2022/06/30 00:32:52;;;;;;;;;;;;;;;;;;5053249;28;821;-77
2022/06/30 00:35:18;;;;;;;;;;;;;;;;;;5052971;28;1287;-77
2022/06/30 00:37:44;;;;;;;;;;;;;;;;;;5052370;28;1910;-77
2022/06/30 00:40:12;;;;;;;;;;;;;;;;;;5052661;28;960;-78
2022/06/30 00:42:38;;;;;;;;;;;;;;;;;;5052977;28;1055;-77
2022/06/30 00:45:05;;;;;;;;;;;;;;;;;;5051540;28;1424;-78
2022/06/30 00:47:31;;;;;;;;;;;;;;;;;;5034058;28;1251;-77
2022/06/30 00:49:58;;;;;;;;;;;;;;;;;;5050920;28;1129;-77
2022/06/30 00:52:24;;;;;;;;;;;;;;;;;;5052773;28;1087;-78
2022/06/30 00:54:50;;;;;;;;;;;;;;;;;;5034800;28;1413;-77
2022/06/30 00:57:18;;;;;;;;;;;;;;;;;;5033940;28;1914;-78
2022/06/30 00:59:44;;;;;;;;;;;;;;;;;;5052534;28;1060;-78
2022/06/30 01:02:10;;;;;;;;;;;;;;;;;;5052707;28;1012;-78
2022/06/30 01:04:37;;;;;;;;;;;;;;;;;;5052573;28;1312;-78
2022/06/30 01:07:03;;;;;;;;;;;;;;;;;;5051949;28;846;-78
2022/06/30 01:14:59;;;;;;;;;;;;;;;;;;5052431;28;1419;-78
2022/06/30 01:17:25;;;;;;;;;;;;;;;;;;5051603;28;1907;-78
2022/06/30 01:19:52;;;;;;;;;;;;;;;;;;5034468;28;1230;-77
2022/06/30 01:22:20;;;;;;;;;;;;;;;;;;5052393;28;1092;-77
2022/06/30 01:24:46;;;;;;;;;;;;;;;;;;5052185;28;1336;-77
2022/06/30 01:27:12;;;;;;;;;;;;;;;;;;5051283;28;1115;-78
2022/06/30 01:29:38;;;;;;;;;;;;;;;;;;5051194;28;1160;-77
2022/06/30 01:32:05;;;;;;;;;;;;;;;;;;5051922;28;909;-77
2022/06/30 01:34:31;;;;;;;;;;;;;;;;;;5034171;28;1353;-77
2022/06/30 01:36:59;;;;;;;;;;;;;;;;;;5049687;28;1914;-77
2022/06/30 01:39:27;;;;;;;;;;;;;;;;;;5050804;28;890;-77
2022/06/30 01:41:53;;;;;;;;;;;;;;;;;;5051776;28;1055;-77
2022/06/30 01:44:19;;;;;;;;;;;;;;;;;;5050591;28;1321;-77
2022/06/30 01:46:45;;;;;;;;;;;;;;;;;;5033103;28;1120;-76
2022/06/30 01:49:12;;;;;;;;;;;;;;;;;;5051838;28;779;-77
2022/06/30 01:51:38;;;;;;;;;;;;;;;;;;5051847;28;1117;-78
2022/06/30 01:54:04;;;;;;;;;;;;;;;;;;5050984;28;1490;-77
2022/06/30 01:56:31;;;;;;;;;;;;;;;;;;5032833;28;1059;-77
2022/06/30 01:58:58;;;;;;;;;;;;;;;;;;5051421;28;1918;-77
2022/06/30 02:01:24;;;;;;;;;;;;;;;;;;5050644;28;1076;-77
2022/06/30 02:03:50;;;;;;;;;;;;;;;;;;5051226;28;1369;-77
2022/06/30 02:06:16;;;;;;;;;;;;;;;;;;5049249;28;1251;-77
2022/06/30 02:08:43;;;;;;;;;;;;;;;;;;5050351;28;1164;-77
2022/06/30 02:11:09;;;;;;;;;;;;;;;;;;5050118;28;1128;-77
2022/06/30 02:13:36;;;;;;;;;;;;;;;;;;5051100;28;1455;-77
2022/06/30 02:16:03;;;;;;;;;;;;;;;;;;5051043;28;1052;-77
2022/06/30 02:18:29;;;;;;;;;;;;;;;;;;5032856;28;2031;-77
2022/06/30 02:20:57;;;;;;;;;;;;;;;;;;5051195;28;1119;-77
2022/06/30 02:23:23;;;;;;;;;;;;;;;;;;5050570;28;945;-78
2022/06/30 02:25:50;;;;;;;;;;;;;;;;;;5050856;28;1376;-77
2022/06/30 02:28:16;;;;;;;;;;;;;;;;;;5050277;28;791;-77
2022/06/30 02:30:43;;;;;;;;;;;;;;;;;;5049857;28;1205;-77
2022/06/30 02:33:10;;;;;;;;;;;;;;;;;;5046834;28;1825;-77
2022/06/30 02:35:36;;;;;;;;;;;;;;;;;;5029968;28;1466;-77
2022/06/30 02:38:09;;;;;;;;;;;;;;;;;;5022841;28;2344;-77
2022/06/30 02:40:35;;;;;;;;;;;;;;;;;;5026623;28;1657;-77
2022/06/30 02:43:01;;;;;;;;;;;;;;;;;;5050947;28;1052;-77
2022/06/30 02:45:27;;;;;;;;;;;;;;;;;;5050990;28;1385;-77
2022/06/30 02:47:55;;;;;;;;;;;;;;;;;;5050282;28;1036;-77
2022/06/30 02:50:22;;;;;;;;;;;;;;;;;;5051193;28;1051;-77
2022/06/30 02:52:48;;;;;;;;;;;;;;;;;;5037251;28;1139;-77
2022/06/30 02:55:14;;;;;;;;;;;;;;;;;;5030785;28;1297;-76
2022/06/30 02:57:40;;;;;;;;;;;;;;;;;;5030618;28;1914;-77
2022/06/30 03:00:08;;;;;;;;;;;;;;;;;;5029533;28;1277;-77
2022/06/30 03:02:34;;;;;;;;;;;;;;;;;;5030892;28;1123;-77
2022/06/30 03:05:02;;;;;;;;;;;;;;;;;;5030679;28;1309;-77
2022/06/30 03:07:28;;;;;;;;;;;;;;;;;;5030179;28;1084;-77
2022/06/30 03:09:54;;;;;;;;;;;;;;;;;;5030832;28;1115;-77
2022/06/30 03:12:20;;;;;;;;;;;;;;;;;;5030087;28;1108;-77
2022/06/30 03:14:47;;;;;;;;;;;;;;;;;;5030690;28;1313;-77
2022/06/30 03:17:13;;;;;;;;;;;;;;;;;;5029970;28;1964;-78
2022/06/30 03:19:39;;;;;;;;;;;;;;;;;;5030715;28;886;-77
2022/06/30 03:22:07;;;;;;;;;;;;;;;;;;5030339;28;1060;-77
2022/06/30 03:24:33;;;;;;;;;;;;;;;;;;5030573;28;1300;-77
2022/06/30 03:26:59;;;;;;;;;;;;;;;;;;5028639;28;1382;-77
2022/06/30 03:29:26;;;;;;;;;;;;;;;;;;5032518;28;1182;-77
2022/06/30 03:31:52;;;;;;;;;;;;;;;;;;5050134;28;877;-77
2022/06/30 03:34:18;;;;;;;;;;;;;;;;;;5050260;28;1297;-77
2022/06/30 03:36:44;;;;;;;;;;;;;;;;;;5031921;28;1362;-77
2022/06/30 03:39:12;;;;;;;;;;;;;;;;;;5050179;28;1910;-77
2022/06/30 03:41:38;;;;;;;;;;;;;;;;;;5032283;28;1167;-78
2022/06/30 03:44:04;;;;;;;;;;;;;;;;;;5027835;28;1445;-78
2022/06/30 03:46:30;;;;;;;;;;;;;;;;;;5047079;28;1320;-77
2022/06/30 03:48:57;;;;;;;;;;;;;;;;;;5050285;28;1162;-77
2022/06/30 03:51:23;;;;;;;;;;;;;;;;;;5050131;28;930;-76
2022/06/30 03:53:49;;;;;;;;;;;;;;;;;;5050068;28;1387;-76
2022/06/30 03:56:17;;;;;;;;;;;;;;;;;;5029054;28;1428;-77
2022/06/30 03:58:44;;;;;;;;;;;;;;;;;;4957275;28;2001;-75
2022/06/30 04:01:11;;;;;;;;;;;;;;;;;;4951160;28;1247;-75
2022/06/30 04:03:37;;;;;;;;;;;;;;;;;;4969456;28;1352;-78
2022/06/30 04:06:04;;;;;;;;;;;;;;;;;;4945264;28;1465;-77
2022/06/30 04:08:31;;;;;;;;;;;;;;;;;;4968649;28;1335;-76
2022/06/30 04:10:57;;;;;;;;;;;;;;;;;;4956206;28;1056;-77
2022/06/30 04:13:25;;;;;;;;;;;;;;;;;;4959519;28;1162;-75
2022/06/30 04:15:51;;;;;;;;;;;;;;;;;;4980021;28;1355;-76
2022/06/30 04:18:18;;;;;;;;;;;;;;;;;;4972459;28;1938;-76
2022/06/30 04:20:44;;;;;;;;;;;;;;;;;;4963843;28;1221;-76
2022/06/30 04:23:11;;;;;;;;;;;;;;;;;;4986626;28;1528;-78
2022/06/30 04:25:38;;;;;;;;;;;;;;;;;;4963215;28;1681;-77
2022/06/30 04:28:05;;;;;;;;;;;;;;;;;;5003680;28;1372;-77
2022/06/30 04:33:16;;;;;;;;;;;;;;;;;;5014962;28;1040;-78
2022/06/30 04:35:43;;;;;;;;;;;;;;;;;;5050404;28;1696;-77
2022/06/30 04:38:09;;;;;;;;;;;;;;;;;;5031924;28;1971;-77
2022/06/30 04:43:19;;;;;;;;;;;;;;;;;;5032200;28;1439;-77
2022/06/30 04:45:46;;;;;;;;;;;;;;;;;;5050520;28;1415;-77
2022/06/30 04:48:13;;;;;;;;;;;;;;;;;;5045744;28;1360;-77
2022/06/30 04:50:39;;;;;;;;;;;;;;;;;;5037972;28;1255;-77
2022/06/30 04:53:05;;;;;;;;;;;;;;;;;;5015091;28;1311;-77
2022/06/30 04:55:31;;;;;;;;;;;;;;;;;;5015266;28;1409;-77
2022/06/30 04:57:57;;;;;;;;;;;;;;;;;;5013994;28;1914;-77
2022/06/30 05:00:24;;;;;;;;;;;;;;;;;;5032324;28;1063;-78
2022/06/30 05:02:51;;;;;;;;;;;;;;;;;;5032745;28;839;-77
2022/06/30 05:05:17;;;;;;;;;;;;;;;;;;5032816;28;1296;-78
2022/06/30 05:07:44;;;;;;;;;;;;;;;;;;5031936;28;922;-78
2022/06/30 05:10:10;;;;;;;;;;;;;;;;;;5032438;28;894;-77
2022/06/30 05:12:36;;;;;;;;;;;;;;;;;;5014511;28;1167;-77
2022/06/30 05:15:02;;;;;;;;;;;;;;;;;;5032515;28;1382;-78
2022/06/30 05:17:28;;;;;;;;;;;;;;;;;;5031886;28;767;-77
2022/06/30 05:19:56;;;;;;;;;;;;;;;;;;5032249;28;1914;-78
2022/06/30 05:22:22;;;;;;;;;;;;;;;;;;5014583;28;1227;-78
2022/06/30 05:27:34;;;;;;;;;;;;;;;;;;5050134;28;1593;-77
2022/06/30 05:30:00;;;;;;;;;;;;;;;;;;5031437;28;1371;-78
2022/06/30 05:32:26;;;;;;;;;;;;;;;;;;5010212;28;1107;-77
2022/06/30 05:34:52;;;;;;;;;;;;;;;;;;5037944;28;1506;-77
2022/06/30 05:37:20;;;;;;;;;;;;;;;;;;5076884;22;3745;-73
2022/06/30 05:39:46;;;;;;;;;;;;;;;;;;5099566;28;1918;-73
2022/06/30 05:42:12;;;;;;;;;;;;;;;;;;5084062;28;1340;-73
2022/06/30 05:44:39;;;;;;;;;;;;;;;;;;5111437;28;936;-73
2022/06/30 05:47:05;;;;;;;;;;;;;;;;;;5110672;28;1403;-73
2022/06/30 05:49:31;;;;;;;;;;;;;;;;;;5080051;28;1228;-72
2022/06/30 05:51:58;;;;;;;;;;;;;;;;;;5057245;28;1531;-72
2022/06/30 05:54:25;;;;;;;;;;;;;;;;;;5091661;28;1051;-73
2022/06/30 05:56:51;;;;;;;;;;;;;;;;;;5057431;28;1376;-73
2022/06/30 05:59:18;;;;;;;;;;;;;;;;;;5071137;28;1979;-72
2022/06/30 06:01:44;;;;;;;;;;;;;;;;;;5053348;28;1368;-72
2022/06/30 06:04:10;;;;;;;;;;;;;;;;;;5077504;28;1498;-72
2022/06/30 06:06:36;;;;;;;;;;;;;;;;;;5078998;28;1507;-72
2022/06/30 06:09:02;;;;;;;;;;;;;;;;;;5064856;28;1380;-72
2022/06/30 06:11:32;;;;;;;;;;;;;;;;;;5089528;28;1247;-73
2022/06/30 06:13:58;;;;;;;;;;;;;;;;;;5091583;28;1128;-73
2022/06/30 06:16:24;;;;;;;;;;;;;;;;;;5090701;28;1329;-73
2022/06/30 06:18:50;;;;;;;;;;;;;;;;;;5077475;28;1910;-72
2022/06/30 06:21:17;;;;;;;;;;;;;;;;;;5053088;28;1171;-73
2022/06/30 06:23:43;;;;;;;;;;;;;;;;;;5074321;28;1304;-72
2022/06/30 06:26:09;;;;;;;;;;;;;;;;;;5088307;28;1294;-71
2022/06/30 06:31:21;;;;;;;;;;;;;;;;;;5090489;28;984;-72
2022/06/30 06:33:48;;;;;;;;;;;;;;;;;;5073989;28;1399;-71
2022/06/30 06:36:14;;;;;;;;;;;;;;;;;;5075333;28;1467;-72
2022/06/30 06:38:40;;;;;;;;;;;;;;;;;;5086593;28;1969;-72
2022/06/30 06:41:08;;;;;;;;;;;;;;;;;;5080213;28;1303;-72
2022/06/30 06:43:34;;;;;;;;;;;;;;;;;;5055663;28;1392;-73
2022/06/30 06:46:01;;;;;;;;;;;;;;;;;;5079782;28;1490;-73
2022/06/30 06:48:28;;;;;;;;;;;;;;;;;;5070047;28;1060;-73
2022/06/30 06:50:54;;;;;;;;;;;;;;;;;;5052874;28;1371;-73
2022/06/30 06:53:21;;;;;;;;;;;;;;;;;;5082148;28;1106;-72
2022/06/30 06:55:47;;;;;;;;;;;;;;;;;;5072360;28;1422;-72
2022/06/30 06:58:13;;;;;;;;;;;;;;;;;;5084683;28;1914;-72
2022/06/30 07:00:39;;;;;;;;;;;;;;;;;;5078476;28;1166;-73
2022/06/30 07:03:07;;;;;;;;;;;;;;;;;;5070297;28;1367;-73
2022/06/30 07:05:33;;;;;;;;;;;;;;;;;;5070090;28;1509;-72
2022/06/30 07:08:00;;;;;;;;;;;;;;;;;;5082551;28;1165;-72
2022/06/30 07:10:26;;;;;;;;;;;;;;;;;;5088740;28;1060;-72
2022/06/30 07:12:52;;;;;;;;;;;;;;;;;;5089172;28;1354;-72
2022/06/30 07:15:19;;;;;;;;;;;;;;;;;;5090743;28;874;-72
2022/06/30 07:17:45;;;;;;;;;;;;;;;;;;5072149;28;1420;-72
2022/06/30 07:20:12;;;;;;;;;;;;;;;;;;5078162;28;1921;-73
2022/06/30 07:22:39;;;;;;;;;;;;;;;;;;5069642;28;1100;-72
2022/06/30 07:25:06;;;;;;;;;;;;;;;;;;5058500;28;1400;-73
2022/06/30 07:27:32;;;;;;;;;;;;;;;;;;5075776;28;1424;-73
2022/06/30 07:29:58;;;;;;;;;;;;;;;;;;5079765;28;1399;-72
2022/06/30 07:32:24;;;;;;;;;;;;;;;;;;5063573;28;1372;-73
2022/06/30 07:34:51;;;;;;;;;;;;;;;;;;5090251;28;845;-73
2022/06/30 07:37:18;;;;;;;;;;;;;;;;;;5087736;28;1307;-73
2022/06/30 07:39:44;;;;;;;;;;;;;;;;;;5079810;28;1973;-72
2022/06/30 07:42:10;;;;;;;;;;;;;;;;;;5078473;28;1246;-73
2022/06/30 07:44:37;;;;;;;;;;;;;;;;;;5070043;28;1056;-73
2022/06/30 07:47:03;;;;;;;;;;;;;;;;;;5069194;28;1394;-74
2022/06/30 07:49:29;;;;;;;;;;;;;;;;;;5077044;28;1450;-74
2022/06/30 07:51:55;;;;;;;;;;;;;;;;;;5072562;28;1572;-74
2022/06/30 07:54:23;;;;;;;;;;;;;;;;;;5083048;28;703;-74
2022/06/30 07:56:49;;;;;;;;;;;;;;;;;;5067100;28;1341;-73
2022/06/30 07:59:15;;;;;;;;;;;;;;;;;;5071968;28;1922;-73
2022/06/30 08:01:41;;;;;;;;;;;;;;;;;;5058419;28;1405;-73
2022/06/30 08:04:08;;;;;;;;;;;;;;;;;;5084031;28;1138;-74
2022/06/30 08:06:34;;;;;;;;;;;;;;;;;;5080787;28;1627;-73
2022/06/30 08:09:00;;;;;;;;;;;;;;;;;;5075857;28;1094;-73
2022/06/30 08:11:28;;;;;;;;;;;;;;;;;;5081947;28;1258;-74
2022/06/30 08:13:55;;;;;;;;;;;;;;;;;;5092996;28;996;-73
2022/06/30 08:16:21;;;;;;;;;;;;;;;;;;5086845;28;1397;-74
2022/06/30 08:18:47;;;;;;;;;;;;;;;;;;5063084;28;2016;-75
2022/06/30 08:21:13;;;;;;;;;;;;;;;;;;5055624;28;1409;-74
2022/06/30 08:23:40;;;;;;;;;;;;;;;;;;5075023;28;1422;-74
2022/06/30 08:26:07;;;;;;;;;;;;;;;;;;5091936;28;1399;-73
2022/06/30 08:28:34;;;;;;;;;;;;;;;;;;5076588;28;1408;-72
2022/06/30 08:31:01;;;;;;;;;;;;;;;;;;5080676;28;1289;-71
2022/06/30 08:33:27;;;;;;;;;;;;;;;;;;5087340;28;1066;-74
2022/06/30 08:35:53;;;;;;;;;;;;;;;;;;5073818;28;1411;-72
2022/06/30 08:38:21;;;;;;;;;;;;;;;;;;5075712;28;2271;-72
2022/06/30 08:43:31;;;;;;;;;;;;;;;;;;5095571;28;1154;-72
2022/06/30 08:45:59;;;;;;;;;;;;;;;;;;5087019;28;1493;-72
2022/06/30 08:48:25;;;;;;;;;;;;;;;;;;5068111;28;1145;-73
2022/06/30 08:50:53;;;;;;;;;;;;;;;;;;5073014;28;933;-75
2022/06/30 08:53:19;;;;;;;;;;;;;;;;;;5055253;28;1222;-73
2022/06/30 08:55:45;;;;;;;;;;;;;;;;;;5060305;28;1368;-73
2022/06/30 08:58:12;;;;;;;;;;;;;;;;;;5083875;28;1178;-73
2022/06/30 09:00:38;;;;;;;;;;;;;;;;;;5079381;28;1959;-73
2022/06/30 09:03:06;;;;;;;;;;;;;;;;;;5059931;28;1482;-72
2022/06/30 09:05:32;;;;;;;;;;;;;;;;;;5083961;28;1141;-73
2022/06/30 09:07:59;;;;;;;;;;;;;;;;;;5065117;28;1385;-73
2022/06/30 09:10:25;;;;;;;;;;;;;;;;;;5063458;28;1384;-73
2022/06/30 09:12:58;;;;;;;;;;;;;;;;;;5075365;28;1249;-73
2022/06/30 09:15:24;;;;;;;;;;;;;;;;;;5071960;28;1060;-74
2022/06/30 09:17:50;;;;;;;;;;;;;;;;;;5081629;28;1482;-73
2022/06/30 09:20:17;;;;;;;;;;;;;;;;;;5080062;28;1983;-74
2022/06/30 09:22:44;;;;;;;;;;;;;;;;;;5080422;28;1134;-73
2022/06/30 09:25:10;;;;;;;;;;;;;;;;;;5069725;28;977;-73
2022/06/30 09:27:38;;;;;;;;;;;;;;;;;;5051268;28;1316;-74
2022/06/30 09:30:07;;;;;;;;;;;;;;;;;;5073330;28;1577;-74
2022/06/30 09:32:43;;;;;;;;;;;;;;;;;;5078709;28;1463;-74
2022/06/30 09:35:10;;;;;;;;;;;;;;;;;;5062553;28;1188;-74
2022/06/30 09:37:38;;;;;;;;;;;;;;;;;;5070194;28;1371;-73
2022/06/30 09:40:05;;;;;;;;;;;;;;;;;;5081939;28;1926;-74
2022/06/30 09:42:38;;;;;;;;;;;;;;;;;;5091283;28;1081;-73
2022/06/30 09:45:05;;;;;;;;;;;;;;;;;;5092061;28;1051;-72
2022/06/30 09:47:31;;;;;;;;;;;;;;;;;;5069510;28;1538;-73
2022/06/30 09:50:00;;;;;;;;;;;;;;;;;;5083015;28;1407;-72
2022/06/30 09:52:27;;;;;;;;;;;;;;;;;;5070593;28;1374;-72
2022/06/30 09:54:55;;;;;;;;;;;;;;;;;;5071447;28;1225;-73
2022/06/30 09:57:21;;;;;;;;;;;;;;;;;;5053592;28;1489;-73
2022/06/30 09:59:47;;;;;;;;;;;;;;;;;;5075324;28;1981;-73
2022/06/30 10:02:14;;;;;;;;;;;;;;;;;;5071120;28;1305;-73
2022/06/30 10:04:53;;;;;;;;;;;;;;;;;;5078352;28;1699;-73
2022/06/30 10:07:20;;;;;;;;;;;;;;;;;;5077441;28;1731;-73
2022/06/30 10:09:46;;;;;;;;;;;;;;;;;;5074531;28;1711;-73
2022/06/30 10:12:13;;;;;;;;;;;;;;;;;;5078718;28;1497;-73
2022/06/30 10:14:40;;;;;;;;;;;;;;;;;;5079614;28;1501;-73
2022/06/30 10:17:07;;;;;;;;;;;;;;;;;;5089555;28;1364;-74
2022/06/30 10:19:33;;;;;;;;;;;;;;;;;;5087844;28;1967;-73
2022/06/30 10:21:59;;;;;;;;;;;;;;;;;;5076414;28;1457;-73
2022/06/30 10:24:25;;;;;;;;;;;;;;;;;;5074444;28;1552;-73
2022/06/30 10:29:36;;;;;;;;;;;;;;;;;;5070824;28;1162;-72
2022/06/30 10:32:03;;;;;;;;;;;;;;;;;;5070546;28;1699;-73
2022/06/30 10:34:32;;;;;;;;;;;;;;;;;;5078133;28;1047;-72
2022/06/30 10:36:59;;;;;;;;;;;;;;;;;;5087892;28;1340;-74
2022/06/30 10:39:26;;;;;;;;;;;;;;;;;;5083988;28;1914;-73
2022/06/30 10:41:52;;;;;;;;;;;;;;;;;;5063386;28;1193;-72
2022/06/30 10:44:22;;;;;;;;;;;;;;;;;;5052373;28;1277;-73
2022/06/30 10:47:04;;;;;;;;;;;;;;;;;;5069463;28;1399;-72
2022/06/30 10:49:30;;;;;;;;;;;;;;;;;;5070694;28;872;-72
2022/06/30 10:51:56;;;;;;;;;;;;;;;;;;5054584;28;1731;-72
2022/06/30 10:54:29;;;;;;;;;;;;;;;;;;5064122;28;1291;-72
2022/06/30 10:56:56;;;;;;;;;;;;;;;;;;5086513;28;1411;-73
2022/06/30 10:59:26;;;;;;;;;;;;;;;;;;5077592;28;1599;-73
2022/06/30 11:02:11;;;;;;;;;;;;;;;;;;5079717;28;1754;-73
2022/06/30 11:04:39;;;;;;;;;;;;;;;;;;5070569;28;996;-72
2022/06/30 11:07:07;;;;;;;;;;;;;;;;;;5069621;28;1305;-73
2022/06/30 11:10:07;;;;;;;;;;;;;;;;;;5070618;28;1063;-72
2022/06/30 11:12:53;;;;;;;;;;;;;;;;;;5069961;28;1028;-72
2022/06/30 11:15:19;;;;;;;;;;;;;;;;;;5070356;28;1199;-72
2022/06/30 11:17:45;;;;;;;;;;;;;;;;;;5051547;28;1410;-72
2022/06/30 11:20:13;;;;;;;;;;;;;;;;;;5052362;28;1914;-72
2022/06/30 11:22:40;;;;;;;;;;;;;;;;;;5070339;28;1056;-72
2022/06/30 11:25:07;;;;;;;;;;;;;;;;;;5070269;28;933;-72
2022/06/30 11:27:34;;;;;;;;;;;;;;;;;;5051136;28;1503;-72
2022/06/30 11:30:00;;;;;;;;;;;;;;;;;;5069724;28;1311;-72
2022/06/30 11:32:27;;;;;;;;;;;;;;;;;;5067477;28;1359;-72
2022/06/30 11:34:53;;;;;;;;;;;;;;;;;;5085892;28;1095;-73
2022/06/30 11:37:21;;;;;;;;;;;;;;;;;;5091921;28;1302;-72
2022/06/30 11:39:48;;;;;;;;;;;;;;;;;;5079960;28;1914;-72
2022/06/30 11:42:14;;;;;;;;;;;;;;;;;;5084865;28;1350;-72
2022/06/30 11:44:40;;;;;;;;;;;;;;;;;;5068995;28;1186;-72
2022/06/30 11:47:07;;;;;;;;;;;;;;;;;;5084978;28;1463;-72
2022/06/30 11:49:40;;;;;;;;;;;;;;;;;;5064847;28;1352;-72
2022/06/30 11:52:10;;;;;;;;;;;;;;;;;;5093390;28;1158;-72
2022/06/30 11:54:38;;;;;;;;;;;;;;;;;;5094202;28;1122;-73
2022/06/30 11:57:04;;;;;;;;;;;;;;;;;;5067846;28;1424;-72
2022/06/30 11:59:30;;;;;;;;;;;;;;;;;;5081682;28;1162;-73
2022/06/30 12:02:01;;;;;;;;;;;;;;;;;;5055543;28;1910;-72
2022/06/30 12:04:27;;;;;;;;;;;;;;;;;;5088947;28;1226;-73
2022/06/30 12:06:54;;;;;;;;;;;;;;;;;;5086763;28;1301;-72
2022/06/30 12:09:20;;;;;;;;;;;;;;;;;;5074668;28;1450;-72
2022/06/30 12:11:47;;;;;;;;;;;;;;;;;;5088528;28;1525;-73
2022/06/30 12:14:14;;;;;;;;;;;;;;;;;;5055923;28;1491;-72
2022/06/30 12:16:41;;;;;;;;;;;;;;;;;;5072505;28;1393;-72
2022/06/30 12:19:07;;;;;;;;;;;;;;;;;;5073517;28;853;-73
2022/06/30 12:21:33;;;;;;;;;;;;;;;;;;5079469;28;1922;-72
2022/06/30 12:24:00;;;;;;;;;;;;;;;;;;5085671;28;1371;-73
2022/06/30 12:26:26;;;;;;;;;;;;;;;;;;5078754;28;1442;-72
2022/06/30 12:28:55;;;;;;;;;;;;;;;;;;5080933;28;1513;-72
2022/06/30 12:31:24;;;;;;;;;;;;;;;;;;5084840;28;1149;-72
2022/06/30 12:33:51;;;;;;;;;;;;;;;;;;5089222;28;1458;-73
2022/06/30 12:36:17;;;;;;;;;;;;;;;;;;5083739;28;1338;-73
2022/06/30 12:38:43;;;;;;;;;;;;;;;;;;5082841;28;1613;-72
2022/06/30 12:41:09;;;;;;;;;;;;;;;;;;5073383;28;1931;-73
2022/06/30 12:43:42;;;;;;;;;;;;;;;;;;5058266;28;1454;-73
2022/06/30 12:46:11;;;;;;;;;;;;;;;;;;5071388;28;1440;-72
2022/06/30 12:48:46;;;;;;;;;;;;;;;;;;5063581;28;1411;-72
2022/06/30 12:51:12;;;;;;;;;;;;;;;;;;5066656;28;1452;-73
2022/06/30 12:53:40;;;;;;;;;;;;;;;;;;5092912;28;1165;-73
2022/06/30 12:56:07;;;;;;;;;;;;;;;;;;5088037;28;1468;-73
2022/06/30 12:58:43;;;;;;;;;;;;;;;;;;5083877;28;1347;-73
2022/06/30 13:01:11;;;;;;;;;;;;;;;;;;5065743;28;1918;-73
2022/06/30 13:03:46;;;;;;;;;;;;;;;;;;5090966;28;1457;-73
2022/06/30 13:06:12;;;;;;;;;;;;;;;;;;5076506;28;1472;-73
2022/06/30 13:08:38;;;;;;;;;;;;;;;;;;5077092;28;1149;-73
2022/06/30 13:11:06;;;;;;;;;;;;;;;;;;5059000;28;1396;-73
2022/06/30 13:13:32;;;;;;;;;;;;;;;;;;5086718;28;1132;-73
2022/06/30 13:15:58;;;;;;;;;;;;;;;;;;5092681;28;1384;-73
2022/06/30 13:18:26;;;;;;;;;;;;;;;;;;5087391;28;1372;-73
2022/06/30 13:20:52;;;;;;;;;;;;;;;;;;5080789;28;1910;-73
2022/06/30 13:23:18;;;;;;;;;;;;;;;;;;5083921;28;1174;-74
2022/06/30 13:25:44;;;;;;;;;;;;;;;;;;5092164;28;1311;-72
2022/06/30 13:28:11;;;;;;;;;;;;;;;;;;5086152;28;1243;-72
2022/06/30 13:30:37;;;;;;;;;;;;;;;;;;5066328;28;1297;-73
2022/06/30 13:33:03;;;;;;;;;;;;;;;;;;5079520;28;1158;-73
2022/06/30 13:35:31;;;;;;;;;;;;;;;;;;5061725;28;1336;-72
2022/06/30 13:37:57;;;;;;;;;;;;;;;;;;5080481;28;1413;-73
2022/06/30 13:40:23;;;;;;;;;;;;;;;;;;5082658;28;1914;-73
2022/06/30 13:42:49;;;;;;;;;;;;;;;;;;5054941;28;1566;-73
2022/06/30 13:45:16;;;;;;;;;;;;;;;;;;5084989;28;1521;-73
2022/06/30 13:47:42;;;;;;;;;;;;;;;;;;5056715;28;1676;-73
2022/06/30 13:50:08;;;;;;;;;;;;;;;;;;5082473;28;1152;-74
2022/06/30 13:52:36;;;;;;;;;;;;;;;;;;5091519;28;889;-73
2022/06/30 13:55:02;;;;;;;;;;;;;;;;;;5057795;28;1546;-73
2022/06/30 13:57:28;;;;;;;;;;;;;;;;;;5073205;28;1423;-73
2022/06/30 13:59:54;;;;;;;;;;;;;;;;;;5065162;28;1229;-73
2022/06/30 14:02:21;;;;;;;;;;;;;;;;;;5082518;28;1918;-73
2022/06/30 14:04:48;;;;;;;;;;;;;;;;;;5081429;28;1434;-73
2022/06/30 14:07:14;;;;;;;;;;;;;;;;;;5077523;28;1344;-73
2022/06/30 14:09:42;;;;;;;;;;;;;;;;;;5071827;28;1383;-74
2022/06/30 14:12:09;;;;;;;;;;;;;;;;;;5080247;28;1473;-73
2022/06/30 14:14:35;;;;;;;;;;;;;;;;;;5081903;28;1512;-73
2022/06/30 14:17:01;;;;;;;;;;;;;;;;;;5083338;28;1380;-73
2022/06/30 14:19:27;;;;;;;;;;;;;;;;;;5070939;28;1055;-73
2022/06/30 14:21:53;;;;;;;;;;;;;;;;;;5052930;28;1918;-73
2022/06/30 14:24:20;;;;;;;;;;;;;;;;;;5058254;28;1391;-73
2022/06/30 14:26:47;;;;;;;;;;;;;;;;;;5081811;28;1338;-73
2022/06/30 14:29:13;;;;;;;;;;;;;;;;;;5071878;28;1456;-73
2022/06/30 14:31:40;;;;;;;;;;;;;;;;;;5082134;28;1461;-73
2022/06/30 14:34:06;;;;;;;;;;;;;;;;;;5065192;28;1478;-72
2022/06/30 14:36:32;;;;;;;;;;;;;;;;;;5070658;28;1667;-73
2022/06/30 14:38:58;;;;;;;;;;;;;;;;;;5078537;28;1699;-73
2022/06/30 14:44:11;;;;;;;;;;;;;;;;;;5082101;28;1146;-73
2022/06/30 14:46:37;;;;;;;;;;;;;;;;;;5089569;28;1398;-72
2022/06/30 14:49:04;;;;;;;;;;;;;;;;;;5079470;28;1603;-73
2022/06/30 14:51:30;;;;;;;;;;;;;;;;;;5072691;28;1115;-73
2022/06/30 14:53:56;;;;;;;;;;;;;;;;;;5079376;28;1378;-73
2022/06/30 14:56:22;;;;;;;;;;;;;;;;;;5069837;28;1324;-73
2022/06/30 14:58:48;;;;;;;;;;;;;;;;;;5070685;28;1056;-73
2022/06/30 15:01:16;;;;;;;;;;;;;;;;;;5052448;28;1926;-74
2022/06/30 15:03:42;;;;;;;;;;;;;;;;;;5070668;28;973;-74
2022/06/30 15:06:08;;;;;;;;;;;;;;;;;;5073883;28;1706;-74
2022/06/30 15:08:34;;;;;;;;;;;;;;;;;;5083432;28;1481;-74
2022/06/30 15:11:01;;;;;;;;;;;;;;;;;;5081091;28;1382;-74
2022/06/30 15:13:27;;;;;;;;;;;;;;;;;;5067889;28;1404;-74
2022/06/30 15:15:54;;;;;;;;;;;;;;;;;;5085669;28;1367;-74
2022/06/30 15:18:22;;;;;;;;;;;;;;;;;;5072082;28;1595;-74
2022/06/30 15:24:04;;;;;;;;;;;;;;;;;;5083055;28;1584;-74
2022/06/30 15:26:18;;;;;;;;;;;;;;;;;;5055781;28;1556;-74
2022/06/30 15:28:45;;;;;;;;;;;;;;;;;;5057347;28;1316;-74
2022/06/30 15:31:11;;;;;;;;;;;;;;;;;;5085631;28;1551;-74
2022/06/30 15:33:38;;;;;;;;;;;;;;;;;;5078063;28;1718;-74
2022/06/30 15:36:05;;;;;;;;;;;;;;;;;;5081316;28;1535;-74
2022/06/30 15:38:31;;;;;;;;;;;;;;;;;;5078034;28;1687;-74
2022/06/30 15:40:57;;;;;;;;;;;;;;;;;;5079257;28;1975;-74
2022/06/30 15:43:23;;;;;;;;;;;;;;;;;;5077874;28;1417;-75
2022/06/30 15:45:49;;;;;;;;;;;;;;;;;;5078465;28;1444;-75
2022/06/30 15:48:16;;;;;;;;;;;;;;;;;;5072993;28;1477;-75
2022/06/30 15:50:43;;;;;;;;;;;;;;;;;;5080324;28;1273;-75
2022/06/30 15:53:11;;;;;;;;;;;;;;;;;;5078215;28;1493;-75
2022/06/30 15:55:37;;;;;;;;;;;;;;;;;;5074701;28;1585;-74
2022/06/30 15:58:03;;;;;;;;;;;;;;;;;;5064523;28;1533;-74
2022/06/30 16:00:31;;;;;;;;;;;;;;;;;;5081538;28;1583;-75
2022/06/30 16:02:57;;;;;;;;;;;;;;;;;;5070946;28;1918;-75
2022/06/30 16:05:23;;;;;;;;;;;;;;;;;;5064514;28;1695;-74
2022/06/30 16:07:51;;;;;;;;;;;;;;;;;;5063195;28;1349;-74
2022/06/30 16:10:17;;;;;;;;;;;;;;;;;;5052375;28;1304;-74
2022/06/30 16:12:44;;;;;;;;;;;;;;;;;;5070119;28;936;-74
2022/06/30 16:15:10;;;;;;;;;;;;;;;;;;5070159;28;996;-74
2022/06/30 16:17:36;;;;;;;;;;;;;;;;;;5051492;28;1317;-75
2022/06/30 16:20:03;;;;;;;;;;;;;;;;;;5073315;28;874;-74
2022/06/30 16:22:29;;;;;;;;;;;;;;;;;;5055725;28;1922;-75
2022/06/30 16:24:57;;;;;;;;;;;;;;;;;;5055901;28;1283;-74
2022/06/30 16:27:23;;;;;;;;;;;;;;;;;;5073190;28;1235;-75
2022/06/30 16:29:49;;;;;;;;;;;;;;;;;;5055645;28;1304;-75
2022/06/30 16:32:15;;;;;;;;;;;;;;;;;;5073643;28;944;-75
2022/06/30 16:34:42;;;;;;;;;;;;;;;;;;5074000;28;786;-74
2022/06/30 16:37:08;;;;;;;;;;;;;;;;;;5072627;28;1305;-74
2022/06/30 16:39:34;;;;;;;;;;;;;;;;;;5073694;28;1064;-74
2022/06/30 16:42:06;;;;;;;;;;;;;;;;;;5073208;28;1976;-75
2022/06/30 16:44:32;;;;;;;;;;;;;;;;;;5055529;28;1246;-74
2022/06/30 16:46:58;;;;;;;;;;;;;;;;;;5072435;28;1283;-74
2022/06/30 16:49:25;;;;;;;;;;;;;;;;;;5073262;28;1108;-75
2022/06/30 16:51:51;;;;;;;;;;;;;;;;;;5073233;28;988;-72
2022/06/30 16:54:17;;;;;;;;;;;;;;;;;;5055249;28;1253;-74
2022/06/30 16:56:44;;;;;;;;;;;;;;;;;;5054879;28;1368;-74
2022/06/30 16:59:13;;;;;;;;;;;;;;;;;;5073243;28;980;-74
2022/06/30 17:01:39;;;;;;;;;;;;;;;;;;5073310;28;1926;-74
2022/06/30 17:04:05;;;;;;;;;;;;;;;;;;5072813;28;1047;-74
2022/06/30 17:06:32;;;;;;;;;;;;;;;;;;5079645;28;1417;-73
2022/06/30 17:08:58;;;;;;;;;;;;;;;;;;5091122;28;1142;-74
2022/06/30 17:11:24;;;;;;;;;;;;;;;;;;5086880;28;1323;-75
2022/06/30 17:13:50;;;;;;;;;;;;;;;;;;5080490;28;1291;-75
2022/06/30 17:16:18;;;;;;;;;;;;;;;;;;5080055;28;1278;-75
2022/06/30 17:18:44;;;;;;;;;;;;;;;;;;5080964;28;1394;-75
2022/06/30 17:21:11;;;;;;;;;;;;;;;;;;5082642;28;1315;-75
2022/06/30 17:23:37;;;;;;;;;;;;;;;;;;5084415;28;1972;-75
2022/06/30 17:26:03;;;;;;;;;;;;;;;;;;5082180;28;1343;-75
2022/06/30 17:28:31;;;;;;;;;;;;;;;;;;5077881;28;1254;-75
2022/06/30 17:30:57;;;;;;;;;;;;;;;;;;5078412;28;1515;-75